Main page
METAR-TAF:

METAR-TAF

Airports :

St Athan, Wales

MOD St Athan

latitude: 51-24N, longitude: 003-26W, elevation: 50 m

Current weather observation

The report was made 28 minutes ago, at 06:50 UTC
Wind 14 kt from the West/Northwest
Temperature 15°C
Humidity 77%
Pressure 1017 hPa
Visibility 10 km or more

METAR: EGDX 190650Z AUTO 30014KT 9999 BKN050/// 15/11 Q1017

Time: 08:18 (07:18 UTC)

Forecast

The report was made 18 hours and 0 minutes ago, at 13:18 UTC
Forecast valid from 18 at 15 UTC to 18 at 18 UTC
Wind 20 kt from the West with gusts up to 30 kt
Visibility 10 km or more
Scattered clouds at a height of 2500 ft
Probability 40% :
Temporary
from 18 at 15 UTC to 18 at 18 UTC
Visibility: 6000 m
Scattered clouds at a height of 2200 ft
rain showers
Probability 30% :
Temporary
from 18 at 15 UTC to 18 at 18 UTC
Wind 33 kt from the West with gusts up to 43 kt

TAF: EGDX 181318Z 1815/1818 26020G30KT 9999 SCT025 PROB40 TEMPO 1815/1818 6000 SHRA SCT022 PROB30 TEMPO 1815/1818 26033G43KT

Weather observations and forecasts of more than 4000 airports (METAR and TAF reports).

The available stations are represented by yellow and red dots on the map.

Hover mouse over dot to see the name of the station.

Then click to see weather observations and forecasts.

To change the map : click on the green buttons with a black cross to zoom in, on the green button with a dash to zoom out, or on the green arrows for adjacent maps.


METAR-TAF: